createdAt,value
2023-01-17T00:02:01.041Z,4.59
2023-01-17T00:04:47.195Z,4.54
2023-01-17T00:07:36.335Z,4.56
2023-01-17T00:10:07.676Z,4.73
2023-01-17T00:12:34.930Z,4.45
2023-01-17T00:15:02.079Z,4.61
2023-01-17T00:17:29.879Z,4.53
2023-01-17T00:20:15.637Z,4.50
2023-01-17T00:23:02.277Z,4.43
2023-01-17T00:25:51.378Z,4.43
2023-01-17T00:28:18.585Z,4.46
2023-01-17T00:30:46.018Z,4.44
2023-01-17T00:33:13.338Z,4.46
2023-01-17T00:35:40.056Z,4.41
2023-01-17T00:38:12.605Z,4.43
2023-01-17T00:40:42.165Z,4.39
2023-01-17T00:43:28.466Z,4.42
2023-01-17T00:46:14.656Z,4.33
2023-01-17T00:49:00.541Z,4.36
2023-01-17T00:51:47.875Z,4.41
2023-01-17T00:54:33.970Z,4.25
2023-01-17T00:57:19.902Z,4.21
2023-01-17T01:00:05.121Z,4.18
2023-01-17T01:02:51.434Z,4.25
2023-01-17T01:05:36.789Z,4.26
2023-01-17T01:08:33.635Z,4.19
2023-01-17T01:11:19.430Z,4.22
2023-01-17T01:14:04.700Z,4.18
2023-01-17T01:16:50.213Z,4.21
2023-01-17T01:19:35.461Z,4.13
2023-01-17T01:22:20.611Z,4.19
2023-01-17T01:25:06.097Z,4.22
2023-01-17T01:27:51.412Z,4.23
2023-01-17T01:30:36.717Z,4.17
2023-01-17T01:33:20.345Z,4.24
2023-01-17T01:35:55.435Z,4.25
2023-01-17T01:38:24.883Z,4.37
2023-01-17T01:40:54.702Z,4.23
2023-01-17T01:43:46.964Z,4.21
2023-01-17T01:46:21.950Z,4.23
2023-01-17T01:49:03.383Z,4.25
2023-01-17T01:51:38.789Z,4.20
2023-01-17T01:54:13.979Z,4.29
2023-01-17T01:56:41.280Z,4.32
2023-01-17T01:59:11.284Z,4.32
2023-01-17T02:01:38.224Z,4.34
2023-01-17T02:04:10.001Z,4.22
2023-01-17T02:06:51.032Z,4.26
2023-01-17T02:09:18.599Z,4.22
2023-01-17T02:11:47.365Z,4.24
2023-01-17T02:14:18.845Z,4.18
2023-01-17T02:17:13.144Z,4.03
2023-01-17T02:20:01.595Z,4.14
2023-01-17T02:23:16.441Z,4.10
2023-01-17T02:26:16.885Z,4.13
2023-01-17T02:29:12.336Z,4.11
2023-01-17T02:31:47.878Z,4.08
2023-01-17T02:34:41.050Z,4.18
2023-01-17T02:37:22.149Z,4.16
2023-01-17T02:40:19.490Z,4.01
2023-01-17T02:42:53.264Z,3.97
2023-01-17T02:45:20.929Z,4.04
2023-01-17T02:47:47.654Z,4.04
2023-01-17T02:50:20.139Z,4.03
2023-01-17T02:53:09.051Z,4.03
2023-01-17T02:55:58.110Z,3.98
2023-01-17T02:58:24.772Z,4.05
2023-01-17T03:01:19.813Z,4.13
2023-01-17T03:04:00.612Z,4.12
2023-01-17T03:06:46.347Z,4.09
2023-01-17T03:09:15.635Z,4.12
2023-01-17T03:11:43.141Z,4.07
2023-01-17T03:14:10.052Z,4.12
2023-01-17T03:16:37.040Z,4.20
2023-01-17T03:19:03.722Z,4.10
2023-01-17T03:21:30.859Z,4.09
2023-01-17T03:23:57.627Z,4.03
2023-01-17T03:26:24.422Z,4.04
2023-01-17T03:28:51.243Z,4.10
2023-01-17T03:31:20.291Z,4.02
2023-01-17T03:33:47.093Z,4.01
2023-01-17T03:36:13.819Z,4.16
2023-01-17T03:38:40.620Z,4.05
2023-01-17T03:41:07.848Z,4.03
2023-01-17T03:43:34.743Z,4.07
2023-01-17T03:46:06.005Z,4.15
2023-01-17T03:48:33.137Z,4.14
2023-01-17T03:51:01.386Z,4.24
2023-01-17T03:53:28.183Z,4.14
2023-01-17T03:55:55.147Z,4.08
2023-01-17T03:58:21.913Z,4.04
2023-01-17T04:00:48.780Z,4.09
2023-01-17T04:03:15.584Z,4.09
2023-01-17T04:05:42.320Z,3.98
2023-01-17T04:08:09.129Z,3.93
2023-01-17T04:10:35.831Z,3.90
2023-01-17T04:13:02.630Z,3.85
2023-01-17T04:15:29.601Z,3.83
2023-01-17T04:17:56.743Z,3.85
2023-01-17T04:20:35.938Z,3.96
2023-01-17T04:23:03.466Z,3.81
2023-01-17T04:25:31.024Z,3.99
2023-01-17T04:28:00.020Z,3.96
2023-01-17T04:30:27.997Z,3.90
2023-01-17T04:32:55.347Z,3.88
2023-01-17T04:35:22.794Z,3.93
2023-01-17T04:37:49.803Z,4.12
2023-01-17T04:40:17.048Z,4.03
2023-01-17T04:42:47.961Z,4.03
2023-01-17T04:45:15.203Z,3.95
2023-01-17T04:47:42.005Z,3.98
2023-01-17T04:50:10.243Z,4.16
2023-01-17T04:52:36.977Z,4.14
2023-01-17T04:55:04.143Z,4.01
2023-01-17T04:57:30.793Z,3.98
2023-01-17T04:59:57.544Z,4.01
2023-01-17T05:02:24.475Z,4.06
2023-01-17T05:04:51.144Z,4.03
2023-01-17T05:07:17.843Z,3.99
2023-01-17T05:09:44.653Z,3.95
2023-01-17T05:12:11.418Z,4.02
2023-01-17T05:14:38.118Z,4.07
2023-01-17T05:17:04.925Z,4.12
2023-01-17T05:19:31.803Z,4.14
2023-01-17T05:22:04.168Z,3.97
2023-01-17T05:24:32.288Z,3.98
2023-01-17T05:27:03.027Z,3.98
2023-01-17T05:29:30.835Z,4.07
2023-01-17T05:31:58.024Z,4.02
2023-01-17T05:34:25.217Z,4.13
2023-01-17T05:36:52.178Z,4.12
2023-01-17T05:39:19.138Z,4.10
2023-01-17T05:41:46.010Z,4.14
2023-01-17T05:44:13.257Z,4.09
2023-01-17T05:46:40.240Z,4.09
2023-01-17T05:49:07.324Z,4.12
2023-01-17T05:51:37.741Z,4.04
2023-01-17T05:54:05.541Z,4.17
2023-01-17T05:56:33.314Z,4.23
2023-01-17T06:02:28.871Z,4.31
2023-01-17T06:04:55.593Z,4.17
2023-01-17T06:07:22.339Z,4.17
2023-01-17T06:09:49.014Z,4.30
2023-01-17T06:12:15.770Z,4.21
2023-01-17T06:14:42.531Z,4.29
2023-01-17T06:17:09.212Z,4.22
2023-01-17T06:19:36.010Z,4.20
2023-01-17T06:22:04.325Z,4.20
2023-01-17T06:24:31.051Z,4.30
2023-01-17T06:26:58.020Z,4.18
2023-01-17T06:29:24.846Z,4.20
2023-01-17T06:31:51.846Z,4.25
2023-01-17T06:34:18.658Z,4.20
2023-01-17T06:36:45.516Z,4.17
2023-01-17T06:39:14.872Z,4.10
2023-01-17T06:41:43.054Z,4.15
2023-01-17T06:44:10.461Z,4.11
2023-01-17T06:46:39.102Z,4.15
2023-01-17T06:49:08.686Z,4.03
2023-01-17T06:51:37.325Z,3.97
2023-01-17T06:54:05.441Z,3.73
2023-01-17T06:56:33.780Z,3.64
2023-01-17T06:59:06.124Z,3.62
2023-01-17T07:01:34.715Z,3.59
2023-01-17T07:04:02.068Z,3.54
2023-01-17T07:06:28.984Z,3.52
2023-01-17T07:08:59.232Z,3.39
2023-01-17T07:11:27.408Z,3.33
2023-01-17T07:13:54.273Z,3.27
2023-01-17T07:16:21.717Z,3.25
2023-01-17T07:18:48.428Z,3.22
2023-01-17T07:21:15.877Z,3.22
2023-01-17T07:23:42.763Z,3.16
2023-01-17T07:26:09.685Z,3.10
2023-01-17T07:28:36.475Z,3.08
2023-01-17T07:31:08.170Z,3.02
2023-01-17T07:33:35.691Z,2.97
2023-01-17T07:36:07.544Z,2.91
2023-01-17T07:38:35.000Z,2.96
2023-01-17T07:41:01.946Z,2.95
2023-01-17T07:43:28.996Z,2.88
2023-01-17T07:45:55.869Z,2.91
2023-01-17T07:48:24.543Z,2.89
2023-01-17T07:50:56.869Z,2.85
2023-01-17T07:53:26.007Z,2.90
2023-01-17T07:55:52.785Z,2.79
2023-01-17T07:58:20.277Z,2.78
2023-01-17T08:00:47.141Z,2.87
2023-01-17T08:03:16.438Z,2.81
2023-01-17T08:05:52.124Z,2.88
2023-01-17T08:08:18.831Z,2.89
2023-01-17T08:10:45.663Z,2.87
2023-01-17T08:13:12.271Z,2.94
2023-01-17T08:15:38.997Z,2.95
2023-01-17T08:18:05.681Z,2.94
2023-01-17T08:20:32.672Z,2.93
2023-01-17T08:22:59.337Z,2.93
2023-01-17T08:25:26.647Z,2.97
2023-01-17T08:27:57.548Z,2.98
2023-01-17T08:30:24.796Z,3.00
2023-01-17T08:32:51.533Z,2.98
2023-01-17T08:35:19.970Z,3.00
2023-01-17T08:37:48.330Z,3.08
2023-01-17T08:40:20.929Z,3.13
2023-01-17T08:42:55.304Z,3.21
2023-01-17T08:45:23.929Z,3.23
2023-01-17T08:47:51.125Z,3.26
2023-01-17T08:50:21.161Z,3.27
2023-01-17T08:52:48.895Z,3.29
2023-01-17T08:55:16.042Z,3.32
2023-01-17T08:57:42.806Z,3.36
2023-01-17T09:00:10.570Z,3.33
2023-01-17T09:02:37.369Z,3.47
2023-01-17T09:05:04.324Z,3.52
2023-01-17T09:07:31.048Z,3.54
2023-01-17T09:09:57.722Z,3.53
2023-01-17T09:12:24.685Z,3.69
2023-01-17T09:14:51.495Z,3.64
2023-01-17T09:17:18.169Z,3.72
2023-01-17T09:19:46.587Z,3.79
2023-01-17T09:22:13.596Z,3.89
2023-01-17T09:24:40.287Z,3.81
2023-01-17T09:27:07.167Z,3.88
2023-01-17T09:29:33.905Z,3.86
2023-01-17T09:32:00.991Z,3.90
2023-01-17T09:34:27.763Z,3.86
2023-01-17T09:36:54.469Z,3.74
2023-01-17T09:39:21.224Z,3.79
2023-01-17T09:42:27.743Z,3.86
2023-01-17T09:44:55.535Z,3.81
2023-01-17T09:47:28.310Z,3.90
2023-01-17T09:50:02.240Z,3.95
2023-01-17T09:52:30.953Z,3.86
2023-01-17T09:54:57.627Z,4.01
2023-01-17T09:57:45.606Z,3.89
2023-01-17T10:00:34.393Z,3.93
2023-01-17T10:03:19.890Z,3.98
2023-01-17T10:06:28.795Z,4.07
2023-01-17T10:09:10.623Z,4.33
2023-01-17T10:12:05.785Z,4.54
2023-01-17T10:14:35.504Z,4.42
2023-01-17T10:17:20.839Z,4.56
2023-01-17T10:19:59.685Z,4.86
2023-01-17T10:22:51.242Z,4.94
2023-01-17T10:25:47.662Z,5.10
2023-01-17T10:28:22.392Z,5.12
2023-01-17T10:30:51.502Z,4.99
2023-01-17T10:33:29.142Z,5.13
2023-01-17T10:36:03.743Z,5.20
2023-01-17T10:38:34.128Z,5.30
2023-01-17T10:41:26.010Z,5.28
2023-01-17T10:44:20.826Z,5.25
2023-01-17T10:46:55.249Z,5.28
2023-01-17T10:49:24.518Z,5.28
2023-01-17T10:52:36.289Z,5.35
2023-01-17T10:55:24.215Z,5.32
2023-01-17T10:57:52.518Z,5.40
2023-01-17T11:00:43.905Z,5.33
2023-01-17T11:03:13.265Z,5.17
2023-01-17T11:05:43.256Z,5.04
2023-01-17T11:08:13.530Z,5.07
2023-01-17T11:10:47.203Z,5.15
2023-01-17T11:13:29.428Z,5.21
2023-01-17T11:16:03.189Z,5.27
2023-01-17T11:18:34.327Z,5.42
2023-01-17T11:21:12.205Z,5.37
2023-01-17T11:23:42.556Z,5.41
2023-01-17T11:26:20.509Z,5.48
2023-01-17T11:28:47.283Z,5.52
2023-01-17T11:31:16.597Z,5.65
2023-01-17T11:33:48.171Z,5.78
2023-01-17T11:36:27.388Z,6.05
2023-01-17T11:38:56.583Z,6.25
2023-01-17T11:41:24.744Z,6.04
2023-01-17T11:43:55.139Z,5.81
2023-01-17T11:46:22.469Z,5.93
2023-01-17T11:48:56.274Z,5.74
2023-01-17T11:51:39.305Z,5.81
2023-01-17T11:54:39.421Z,5.89
2023-01-17T11:57:25.795Z,5.93
2023-01-17T12:00:03.869Z,6.01
2023-01-17T12:03:26.166Z,5.70
2023-01-17T12:06:13.041Z,5.51
2023-01-17T12:09:11.061Z,5.36
2023-01-17T12:12:06.799Z,5.40
2023-01-17T12:15:08.976Z,5.37
2023-01-17T12:17:50.784Z,5.32
2023-01-17T12:20:27.774Z,5.33
2023-01-17T12:23:20.048Z,5.23
2023-01-17T12:26:20.743Z,5.07
2023-01-17T12:29:12.833Z,4.85
2023-01-17T12:31:56.075Z,4.51
2023-01-17T12:35:21.573Z,4.45
2023-01-17T12:38:04.409Z,4.42
2023-01-17T12:40:49.451Z,4.26
2023-01-17T12:43:37.247Z,4.17
2023-01-17T12:46:13.046Z,4.02
2023-01-17T12:48:39.916Z,3.97
2023-01-17T12:51:14.343Z,3.89
2023-01-17T12:53:56.756Z,3.95
2023-01-17T12:56:50.001Z,3.92
2023-01-17T12:59:32.775Z,3.82
2023-01-17T13:02:04.058Z,3.81
2023-01-17T13:04:57.640Z,3.75
2023-01-17T13:07:34.828Z,3.66
2023-01-17T13:10:26.511Z,3.48
2023-01-17T13:12:57.518Z,3.28
2023-01-17T13:15:28.517Z,3.06
2023-01-17T13:18:09.511Z,2.95
2023-01-17T13:20:45.164Z,2.80
2023-01-17T13:23:29.511Z,2.78
2023-01-17T13:25:59.728Z,2.63
2023-01-17T13:28:50.805Z,2.57
2023-01-17T13:31:23.273Z,2.60
2023-01-17T13:34:21.837Z,2.79
2023-01-17T13:36:57.898Z,2.89
2023-01-17T13:39:49.591Z,2.88
2023-01-17T13:42:30.568Z,2.85
2023-01-17T13:44:58.141Z,2.70
2023-01-17T13:47:27.691Z,2.69
2023-01-17T13:49:56.628Z,2.73
2023-01-17T13:52:26.368Z,2.82
2023-01-17T13:55:04.639Z,2.96
2023-01-17T13:57:40.051Z,3.03
2023-01-17T14:00:16.463Z,3.04
2023-01-17T14:02:43.755Z,2.98
2023-01-17T14:05:15.334Z,2.97
2023-01-17T14:07:57.233Z,2.91
2023-01-17T14:10:32.908Z,2.81
2023-01-17T14:13:00.548Z,2.80
2023-01-17T14:15:29.897Z,2.80
2023-01-17T14:18:01.608Z,2.77
2023-01-17T14:20:41.416Z,2.70
2023-01-17T14:23:25.703Z,2.75
2023-01-17T14:25:53.350Z,2.67
2023-01-17T14:28:29.712Z,2.64
2023-01-17T14:30:59.300Z,2.65
2023-01-17T14:33:34.506Z,2.67
2023-01-17T14:36:04.543Z,2.67
2023-01-17T14:38:33.073Z,2.59
2023-01-17T14:41:02.461Z,2.63
2023-01-17T14:43:33.036Z,2.58
2023-01-17T14:46:03.011Z,2.60
2023-01-17T14:48:30.307Z,2.57
2023-01-17T14:51:00.286Z,2.47
2023-01-17T14:53:28.991Z,2.57
2023-01-17T14:56:03.276Z,2.60
2023-01-17T14:58:29.889Z,2.59
2023-01-17T15:01:13.902Z,2.58
2023-01-17T15:03:46.591Z,2.64
2023-01-17T15:06:19.588Z,2.67
2023-01-17T15:08:47.424Z,2.64
2023-01-17T15:11:22.835Z,2.77
2023-01-17T15:13:53.344Z,2.70
2023-01-17T15:16:29.647Z,2.83
2023-01-17T15:18:57.713Z,2.77
2023-01-17T15:21:28.205Z,2.78
2023-01-17T15:23:57.933Z,2.77
2023-01-17T15:26:33.274Z,2.62
2023-01-17T15:29:06.501Z,2.59
2023-01-17T15:31:40.903Z,2.51
2023-01-17T15:34:13.111Z,2.38
2023-01-17T15:36:39.992Z,2.47
2023-01-17T15:39:17.898Z,2.50
2023-01-17T15:41:44.805Z,2.57
2023-01-17T15:44:47.989Z,2.58
2023-01-17T15:47:34.317Z,2.64
2023-01-17T15:50:03.291Z,2.64
2023-01-17T15:55:14.387Z,2.68
2023-01-17T15:57:47.505Z,2.73
2023-01-17T16:00:18.780Z,2.72
2023-01-17T16:02:47.501Z,2.72
2023-01-17T16:05:24.053Z,2.73
2023-01-17T16:08:12.257Z,2.69
2023-01-17T16:10:39.464Z,2.77
2023-01-17T16:13:08.888Z,2.85
2023-01-17T16:15:37.438Z,2.79
2023-01-17T16:18:21.095Z,2.81
2023-01-17T16:21:09.159Z,2.68
2023-01-17T16:23:35.836Z,2.52
2023-01-17T16:26:11.023Z,2.43
2023-01-17T16:28:39.363Z,2.30
2023-01-17T16:31:06.242Z,2.21
2023-01-17T16:33:32.968Z,2.09
2023-01-17T16:35:59.803Z,2.10
2023-01-17T16:38:26.580Z,2.02
2023-01-17T16:40:54.104Z,1.90
2023-01-17T16:43:20.848Z,1.79
2023-01-17T16:45:52.037Z,1.69
2023-01-17T16:48:19.985Z,1.60
2023-01-17T16:50:50.795Z,1.62
2023-01-17T16:53:24.692Z,1.63
2023-01-17T16:55:54.941Z,1.61
2023-01-17T16:58:21.918Z,1.60
2023-01-17T17:00:48.946Z,1.63
2023-01-17T17:03:20.104Z,1.62
2023-01-17T17:05:58.642Z,1.65
2023-01-17T17:08:25.496Z,1.63
2023-01-17T17:10:52.367Z,1.70
2023-01-17T17:13:19.108Z,1.68
2023-01-17T17:15:46.012Z,1.66
2023-01-17T17:18:15.001Z,1.68
2023-01-17T17:20:42.350Z,1.79
2023-01-17T17:23:10.159Z,1.68
2023-01-17T17:25:37.692Z,1.88
2023-01-17T17:28:05.801Z,1.72
2023-01-17T17:30:33.323Z,1.78
2023-01-17T17:33:00.192Z,1.86
2023-01-17T17:35:26.932Z,1.88
2023-01-17T17:37:54.564Z,1.84
2023-01-17T17:40:21.752Z,1.88
2023-01-17T17:42:48.548Z,1.79
2023-01-17T17:45:15.509Z,1.78
2023-01-17T17:47:42.450Z,1.81
2023-01-17T17:50:09.748Z,1.72
2023-01-17T17:52:36.571Z,1.71
2023-01-17T17:55:03.338Z,1.65
2023-01-17T17:57:30.133Z,1.67
2023-01-17T17:59:59.709Z,1.60
2023-01-17T18:02:26.467Z,1.51
2023-01-17T18:04:53.356Z,1.56
2023-01-17T18:07:20.165Z,1.61
2023-01-17T18:09:46.921Z,1.56
2023-01-17T18:12:13.702Z,1.54
2023-01-17T18:14:40.421Z,1.60
2023-01-17T18:17:07.131Z,1.58
2023-01-17T18:19:34.232Z,1.72
2023-01-17T18:22:03.482Z,1.68
2023-01-17T18:24:30.356Z,1.55
2023-01-17T18:26:57.998Z,1.63
2023-01-17T18:29:26.999Z,1.54
2023-01-17T18:31:54.857Z,1.55
2023-01-17T18:34:24.437Z,1.61
2023-01-17T18:36:51.991Z,1.55
2023-01-17T18:39:20.251Z,1.68
2023-01-17T18:41:47.578Z,1.53
2023-01-17T18:44:14.432Z,1.60
2023-01-17T18:46:42.289Z,1.59
2023-01-17T18:49:13.146Z,1.61
2023-01-17T18:51:40.623Z,1.56
2023-01-17T18:54:09.268Z,1.54
2023-01-17T18:56:36.398Z,1.63
2023-01-17T18:59:09.038Z,1.61
2023-01-17T19:01:37.845Z,1.61
2023-01-17T19:04:06.309Z,1.52
2023-01-17T19:06:38.901Z,1.65
2023-01-17T19:09:08.657Z,1.67
2023-01-17T19:11:36.974Z,1.59
2023-01-17T19:14:04.922Z,1.51
2023-01-17T19:16:35.693Z,1.62
2023-01-17T19:19:07.905Z,1.61
2023-01-17T19:21:37.851Z,1.68
2023-01-17T19:24:05.024Z,1.64
2023-01-17T19:26:31.964Z,1.64
2023-01-17T19:28:59.044Z,1.67
2023-01-17T19:31:28.565Z,1.63
2023-01-17T19:33:59.485Z,1.68
2023-01-17T19:36:31.563Z,1.67
2023-01-17T19:39:04.974Z,1.80
2023-01-17T19:41:37.254Z,1.70
2023-01-17T19:44:07.475Z,1.66
2023-01-17T19:46:39.498Z,1.70
2023-01-17T19:49:13.417Z,1.67
2023-01-17T19:51:41.460Z,1.66
2023-01-17T19:54:12.077Z,1.66
2023-01-17T19:56:40.076Z,1.65
2023-01-17T19:59:19.009Z,1.72
2023-01-17T20:01:52.298Z,1.65
2023-01-17T20:04:25.567Z,1.72
2023-01-17T20:07:02.443Z,1.66
2023-01-17T20:09:37.812Z,1.80
2023-01-17T20:12:28.852Z,1.78
2023-01-17T20:15:17.100Z,1.71
2023-01-17T20:17:54.096Z,1.68
2023-01-17T20:20:48.901Z,1.61
2023-01-17T20:23:23.205Z,1.61
2023-01-17T20:26:07.203Z,1.58
2023-01-17T20:28:42.674Z,1.60
2023-01-17T20:31:16.313Z,1.62
2023-01-17T20:33:44.487Z,1.64
2023-01-17T20:36:16.015Z,1.67
2023-01-17T20:38:47.188Z,1.58
2023-01-17T20:41:38.249Z,1.60
2023-01-17T20:44:20.383Z,1.60
2023-01-17T20:47:17.281Z,1.58
2023-01-17T20:49:46.334Z,1.48
2023-01-17T20:52:15.383Z,1.57
2023-01-17T20:54:46.835Z,1.64
2023-01-17T20:57:15.197Z,1.58
2023-01-17T20:59:47.761Z,1.55
2023-01-17T21:02:32.016Z,1.53
2023-01-17T21:04:58.899Z,1.58
2023-01-17T21:07:26.689Z,1.53
2023-01-17T21:09:53.438Z,1.46
2023-01-17T21:12:25.425Z,1.47
2023-01-17T21:14:55.374Z,1.49
2023-01-17T21:17:26.188Z,1.45
2023-01-17T21:19:56.060Z,1.44
2023-01-17T21:22:33.034Z,1.43
2023-01-17T21:25:00.695Z,1.38
2023-01-17T21:27:32.173Z,1.43
2023-01-17T21:29:59.645Z,1.40
2023-01-17T21:32:30.452Z,1.39
2023-01-17T21:35:01.595Z,1.39
2023-01-17T21:37:34.231Z,1.50
2023-01-17T21:40:01.016Z,1.46
2023-01-17T21:42:27.899Z,1.39
2023-01-17T21:44:58.317Z,1.43
2023-01-17T21:47:25.197Z,1.48
2023-01-17T21:49:51.884Z,1.36
2023-01-17T21:52:18.594Z,1.36
2023-01-17T21:55:03.894Z,1.29
2023-01-17T21:57:49.197Z,1.34
2023-01-17T22:00:16.603Z,1.41
2023-01-17T22:02:44.899Z,1.37
2023-01-17T22:05:12.261Z,1.33
2023-01-17T22:07:39.093Z,1.27
2023-01-17T22:10:06.915Z,1.27
2023-01-17T22:12:33.633Z,1.24
2023-01-17T22:15:00.356Z,1.27
2023-01-17T22:17:29.292Z,1.31
2023-01-17T22:19:56.022Z,1.40
2023-01-17T22:22:22.694Z,1.41
2023-01-17T22:24:52.888Z,1.48
2023-01-17T22:27:20.465Z,1.30
2023-01-17T22:29:47.217Z,1.24
2023-01-17T22:32:13.919Z,1.29
2023-01-17T22:34:40.719Z,1.31
2023-01-17T22:37:10.300Z,1.30
2023-01-17T22:39:38.439Z,1.18
2023-01-17T22:42:06.524Z,1.27
2023-01-17T22:44:33.375Z,1.19
2023-01-17T22:47:00.170Z,1.22
2023-01-17T22:49:26.941Z,1.24
2023-01-17T22:51:53.652Z,1.12
2023-01-17T22:54:20.442Z,1.12
2023-01-17T22:56:47.275Z,1.06
2023-01-17T22:59:13.933Z,1.12
2023-01-17T23:01:40.722Z,1.25
2023-01-17T23:04:10.539Z,1.23
2023-01-17T23:06:39.857Z,1.26
2023-01-17T23:09:17.198Z,1.14
2023-01-17T23:11:47.446Z,1.27
2023-01-17T23:14:15.900Z,1.17
2023-01-17T23:17:03.179Z,1.25
2023-01-17T23:19:35.790Z,1.25
2023-01-17T23:22:21.636Z,1.18
2023-01-17T23:24:51.348Z,1.24
2023-01-17T23:27:48.799Z,1.24
2023-01-17T23:30:25.078Z,1.44
2023-01-17T23:32:54.054Z,1.42
2023-01-17T23:35:23.372Z,1.39
2023-01-17T23:38:08.573Z,1.37
2023-01-17T23:40:36.675Z,1.42
2023-01-17T23:43:23.020Z,1.42
2023-01-17T23:45:51.715Z,1.34
2023-01-17T23:48:19.112Z,1.15
2023-01-17T23:50:48.430Z,1.15
2023-01-17T23:53:24.670Z,1.05
2023-01-17T23:55:57.312Z,0.96
2023-01-17T23:58:26.626Z,0.96
